Terminal Aerodrome Forecast
Issued by NWS

Home | Current Version | Previous Version | Text Only | Print | Product List | Glossary On
Versions: 1 2 3 4 5 6 7 8 9 10 11 12 13 14 15 16 17 18 19 20
000
FTUS41 KBGM 240539
TAFRME
TAF
KRME 240539Z 2406/2506 28004KT 3SM BR OVC008
     FM240900 29008KT P6SM OVC012
     FM241600 29006KT P6SM BKN035
     FM242100 VRB03KT P6SM SCT120 BKN250
     FM250300 12008KT P6SM OVC100=

USA.gov is the U.S. government's official web portal to all federal, state and local government web resources and services.